sensor_id;sensor_type;location;lat;lon;timestamp;pressure;altitude;pressure_sealevel;temperature;humidity
61568;BME280;47462;59.172;17.196;2023-02-11T00:01:29;99691.19;;;2.05;89.01
61568;BME280;47462;59.172;17.196;2023-02-11T00:03:55;99704.66;;;2.30;89.28
61568;BME280;47462;59.172;17.196;2023-02-11T00:06:21;99709.72;;;2.39;89.18
61568;BME280;47462;59.172;17.196;2023-02-11T00:08:47;99723.44;;;2.38;89.11
61568;BME280;47462;59.172;17.196;2023-02-11T00:11:14;99701.97;;;2.41;90.21
61568;BME280;47462;59.172;17.196;2023-02-11T00:13:40;99657.28;;;2.43;90.52
61568;BME280;47462;59.172;17.196;2023-02-11T00:16:07;99704.16;;;2.73;90.18
61568;BME280;47462;59.172;17.196;2023-02-11T00:18:33;99669.72;;;2.79;91.06
61568;BME280;47462;59.172;17.196;2023-02-11T00:21:05;99690.03;;;3.02;90.58
61568;BME280;47462;59.172;17.196;2023-02-11T00:23:30;99656.84;;;2.79;90.79
61568;BME280;47462;59.172;17.196;2023-02-11T00:25:55;99685.81;;;2.96;90.71
61568;BME280;47462;59.172;17.196;2023-02-11T00:28:21;99662.59;;;2.96;91.19
61568;BME280;47462;59.172;17.196;2023-02-11T00:30:53;99616.38;;;2.85;91.55
61568;BME280;47462;59.172;17.196;2023-02-11T00:33:18;99653.09;;;3.00;91.48
61568;BME280;47462;59.172;17.196;2023-02-11T00:35:44;99687.22;;;3.19;91.79
61568;BME280;47462;59.172;17.196;2023-02-11T00:38:09;99684.44;;;3.31;92.10
61568;BME280;47462;59.172;17.196;2023-02-11T00:40:35;99665.34;;;3.43;92.26
61568;BME280;47462;59.172;17.196;2023-02-11T00:43:00;99682.47;;;3.46;91.72
61568;BME280;47462;59.172;17.196;2023-02-11T00:45:25;99678.28;;;3.42;91.97
61568;BME280;47462;59.172;17.196;2023-02-11T00:47:51;99667.78;;;3.52;92.41
61568;BME280;47462;59.172;17.196;2023-02-11T00:50:17;99664.31;;;3.52;92.34
61568;BME280;47462;59.172;17.196;2023-02-11T00:52:42;99654.97;;;3.46;92.37
61568;BME280;47462;59.172;17.196;2023-02-11T00:55:08;99636.94;;;3.45;91.97
61568;BME280;47462;59.172;17.196;2023-02-11T00:57:33;99654.72;;;3.62;92.64
61568;BME280;47462;59.172;17.196;2023-02-11T00:59:59;99654.47;;;3.75;92.52
61568;BME280;47462;59.172;17.196;2023-02-11T01:02:24;99649.38;;;3.72;91.89
61568;BME280;47462;59.172;17.196;2023-02-11T01:04:49;99450.41;;;2.44;91.62
61568;BME280;47462;59.172;17.196;2023-02-11T01:07:15;99627.38;;;3.51;91.98
61568;BME280;47462;59.172;17.196;2023-02-11T01:09:40;99658.81;;;3.73;92.06
61568;BME280;47462;59.172;17.196;2023-02-11T01:12:06;99658.66;;;3.81;92.22
61568;BME280;47462;59.172;17.196;2023-02-11T01:14:31;99662.16;;;3.79;92.01
61568;BME280;47462;59.172;17.196;2023-02-11T01:16:56;99655.19;;;3.84;92.66
61568;BME280;47462;59.172;17.196;2023-02-11T01:19:22;99657.06;;;3.75;91.93
61568;BME280;47462;59.172;17.196;2023-02-11T01:21:48;99661.19;;;3.84;92.45
61568;BME280;47462;59.172;17.196;2023-02-11T01:24:13;99479.06;;;2.80;92.42
61568;BME280;47462;59.172;17.196;2023-02-11T01:26:38;99681.47;;;4.06;92.60
61568;BME280;47462;59.172;17.196;2023-02-11T01:29:04;99676.44;;;4.00;92.58
61568;BME280;47462;59.172;17.196;2023-02-11T01:31:29;99681.41;;;4.09;92.85
61568;BME280;47462;59.172;17.196;2023-02-11T01:33:56;99639.69;;;3.85;92.52
61568;BME280;47462;59.172;17.196;2023-02-11T01:36:21;99672.78;;;4.10;92.05
61568;BME280;47462;59.172;17.196;2023-02-11T01:38:47;99658.31;;;4.01;92.33
61568;BME280;47462;59.172;17.196;2023-02-11T01:41:14;99668.31;;;4.20;92.87
61568;BME280;47462;59.172;17.196;2023-02-11T01:43:42;99657.19;;;4.15;92.59
61568;BME280;47462;59.172;17.196;2023-02-11T01:49:00;99628.91;;;4.08;93.40
61568;BME280;47462;59.172;17.196;2023-02-11T01:51:32;99672.06;;;4.47;93.69
61568;BME280;47462;59.172;17.196;2023-02-11T01:53:59;99667.97;;;4.37;93.09
61568;BME280;47462;59.172;17.196;2023-02-11T01:56:48;99643.44;;;4.14;92.74
61568;BME280;47462;59.172;17.196;2023-02-11T02:10:55;99623.72;;;4.10;93.08
61568;BME280;47462;59.172;17.196;2023-02-11T02:13:23;99613.28;;;4.16;93.89
61568;BME280;47462;59.172;17.196;2023-02-11T02:16:03;99663.44;;;4.48;93.57
61568;BME280;47462;59.172;17.196;2023-02-11T02:27:16;99692.75;;;4.45;93.02
61568;BME280;47462;59.172;17.196;2023-02-11T02:37:33;99694.84;;;4.72;93.40
61568;BME280;47462;59.172;17.196;2023-02-11T02:40:03;99711.19;;;4.72;93.26
61568;BME280;47462;59.172;17.196;2023-02-11T02:42:32;99694.06;;;4.67;93.84
61568;BME280;47462;59.172;17.196;2023-02-11T02:44:57;99710.22;;;4.78;93.67
61568;BME280;47462;59.172;17.196;2023-02-11T02:47:23;99656.28;;;4.61;94.04
61568;BME280;47462;59.172;17.196;2023-02-11T02:49:48;99702.06;;;4.96;93.73
61568;BME280;47462;59.172;17.196;2023-02-11T02:52:40;99708.25;;;4.89;92.80
61568;BME280;47462;59.172;17.196;2023-02-11T02:55:19;99700.56;;;4.86;92.68
61568;BME280;47462;59.172;17.196;2023-02-11T03:00:40;99707.63;;;4.78;93.03
61568;BME280;47462;59.172;17.196;2023-02-11T03:03:34;99720.25;;;4.92;93.40
61568;BME280;47462;59.172;17.196;2023-02-11T03:06:06;99600.34;;;4.16;92.24
61568;BME280;47462;59.172;17.196;2023-02-11T03:08:42;99714.22;;;4.91;93.05
61568;BME280;47462;59.172;17.196;2023-02-11T03:11:10;99712.44;;;4.95;93.23
61568;BME280;47462;59.172;17.196;2023-02-11T03:13:38;99707.19;;;4.98;93.03
61568;BME280;47462;59.172;17.196;2023-02-11T03:16:18;99696.28;;;4.83;92.88
61568;BME280;47462;59.172;17.196;2023-02-11T03:19:48;99710.78;;;4.91;92.60
61568;BME280;47462;59.172;17.196;2023-02-11T03:21:50;99686.03;;;4.79;92.72
61568;BME280;47462;59.172;17.196;2023-02-11T03:24:30;99716.78;;;4.93;92.47
61568;BME280;47462;59.172;17.196;2023-02-11T03:26:58;99722.84;;;4.92;91.97
61568;BME280;47462;59.172;17.196;2023-02-11T03:34:45;99725.44;;;4.92;92.02
61568;BME280;47462;59.172;17.196;2023-02-11T03:39:51;99734.00;;;4.94;92.39
61568;BME280;47462;59.172;17.196;2023-02-11T03:42:18;99729.91;;;4.83;92.52
61568;BME280;47462;59.172;17.196;2023-02-11T03:44:50;99710.53;;;4.62;92.37
61568;BME280;47462;59.172;17.196;2023-02-11T03:47:20;99747.88;;;4.90;92.30
61568;BME280;47462;59.172;17.196;2023-02-11T03:49:49;99732.63;;;4.76;91.80
61568;BME280;47462;59.172;17.196;2023-02-11T03:52:20;99746.44;;;4.76;92.39
61568;BME280;47462;59.172;17.196;2023-02-11T03:54:50;99739.56;;;4.75;92.20
61568;BME280;47462;59.172;17.196;2023-02-11T03:57:17;99728.53;;;4.67;92.03
61568;BME280;47462;59.172;17.196;2023-02-11T03:59:57;99715.06;;;4.50;91.86
61568;BME280;47462;59.172;17.196;2023-02-11T04:02:26;99772.97;;;4.85;92.35
61568;BME280;47462;59.172;17.196;2023-02-11T04:04:53;99751.59;;;4.76;92.53
61568;BME280;47462;59.172;17.196;2023-02-11T04:07:18;99741.50;;;4.64;92.25
61568;BME280;47462;59.172;17.196;2023-02-11T04:09:43;99787.69;;;4.81;92.38
61568;BME280;47462;59.172;17.196;2023-02-11T04:12:09;99787.97;;;4.67;92.20
61568;BME280;47462;59.172;17.196;2023-02-11T04:14:34;99810.09;;;4.80;92.38
61568;BME280;47462;59.172;17.196;2023-02-11T04:17:00;99747.78;;;4.51;92.70
61568;BME280;47462;59.172;17.196;2023-02-11T04:19:25;99779.47;;;4.60;92.84
61568;BME280;47462;59.172;17.196;2023-02-11T04:21:51;99796.47;;;4.72;92.61
61568;BME280;47462;59.172;17.196;2023-02-11T04:24:16;99755.53;;;4.51;92.46
61568;BME280;47462;59.172;17.196;2023-02-11T04:26:41;99819.72;;;4.74;91.99
61568;BME280;47462;59.172;17.196;2023-02-11T04:29:07;99836.28;;;4.62;91.76
61568;BME280;47462;59.172;17.196;2023-02-11T04:31:32;99817.41;;;4.07;91.29
61568;BME280;47462;59.172;17.196;2023-02-11T04:33:57;99864.81;;;4.04;90.97
61568;BME280;47462;59.172;17.196;2023-02-11T04:36:23;99868.72;;;3.72;90.40
61568;BME280;47462;59.172;17.196;2023-02-11T04:38:49;99811.88;;;3.15;89.79
61568;BME280;47462;59.172;17.196;2023-02-11T04:41:14;99892.47;;;3.28;89.70
61568;BME280;47462;59.172;17.196;2023-02-11T04:43:39;99886.91;;;2.90;89.74
61568;BME280;47462;59.172;17.196;2023-02-11T04:46:05;99922.97;;;2.90;89.02
61568;BME280;47462;59.172;17.196;2023-02-11T04:48:30;99924.06;;;2.64;88.87
61568;BME280;47462;59.172;17.196;2023-02-11T04:50:55;99937.88;;;2.56;88.37
61568;BME280;47462;59.172;17.196;2023-02-11T04:53:21;99943.13;;;2.43;88.19
61568;BME280;47462;59.172;17.196;2023-02-11T04:55:49;99927.00;;;2.20;87.91
61568;BME280;47462;59.172;17.196;2023-02-11T04:58:16;99952.78;;;2.13;87.87
61568;BME280;47462;59.172;17.196;2023-02-11T05:00:41;99953.69;;;2.05;87.71
61568;BME280;47462;59.172;17.196;2023-02-11T05:03:07;99941.81;;;1.76;87.38
61568;BME280;47462;59.172;17.196;2023-02-11T05:05:32;99967.50;;;1.87;87.69
61568;BME280;47462;59.172;17.196;2023-02-11T05:07:57;99962.41;;;1.79;87.24
61568;BME280;47462;59.172;17.196;2023-02-11T05:10:23;99967.63;;;1.60;87.47
61568;BME280;47462;59.172;17.196;2023-02-11T05:12:48;99968.50;;;1.63;87.35
61568;BME280;47462;59.172;17.196;2023-02-11T05:15:14;99980.50;;;1.54;86.97
61568;BME280;47462;59.172;17.196;2023-02-11T05:17:40;99818.06;;;0.46;86.80
61568;BME280;47462;59.172;17.196;2023-02-11T05:20:06;100001.06;;;1.57;86.88
61568;BME280;47462;59.172;17.196;2023-02-11T05:22:31;100002.81;;;1.48;86.88
61568;BME280;47462;59.172;17.196;2023-02-11T05:24:57;100006.25;;;1.39;86.76
61568;BME280;47462;59.172;17.196;2023-02-11T05:27:22;100004.56;;;1.24;86.56
61568;BME280;47462;59.172;17.196;2023-02-11T05:29:47;100044.00;;;1.28;87.44
61568;BME280;47462;59.172;17.196;2023-02-11T05:32:13;100059.41;;;1.28;86.86
61568;BME280;47462;59.172;17.196;2023-02-11T05:34:38;100015.75;;;0.95;86.92
61568;BME280;47462;59.172;17.196;2023-02-11T05:37:03;100030.28;;;1.05;86.93
61568;BME280;47462;59.172;17.196;2023-02-11T05:39:29;100012.31;;;0.82;87.06
61568;BME280;47462;59.172;17.196;2023-02-11T05:41:54;100073.13;;;1.11;86.98
61568;BME280;47462;59.172;17.196;2023-02-11T05:44:20;100084.25;;;1.07;86.70
61568;BME280;47462;59.172;17.196;2023-02-11T05:46:45;100091.97;;;1.05;87.00
61568;BME280;47462;59.172;17.196;2023-02-11T05:49:10;100102.25;;;1.07;87.14
61568;BME280;47462;59.172;17.196;2023-02-11T05:51:36;100103.97;;;0.99;87.13
61568;BME280;47462;59.172;17.196;2023-02-11T05:54:01;100102.25;;;1.01;87.10
61568;BME280;47462;59.172;17.196;2023-02-11T05:56:27;100110.81;;;1.00;86.96
61568;BME280;47462;59.172;17.196;2023-02-11T05:58:53;100081.66;;;0.68;87.25
61568;BME280;47462;59.172;17.196;2023-02-11T06:01:18;100123.66;;;0.94;87.37
61568;BME280;47462;59.172;17.196;2023-02-11T06:03:43;100135.63;;;0.93;86.79
61568;BME280;47462;59.172;17.196;2023-02-11T06:06:12;100106.50;;;0.65;86.92
61568;BME280;47462;59.172;17.196;2023-02-11T06:08:37;100130.47;;;0.73;87.17
61568;BME280;47462;59.172;17.196;2023-02-11T06:11:03;100125.31;;;0.71;87.09
61568;BME280;47462;59.172;17.196;2023-02-11T06:13:28;100124.47;;;0.71;86.93
61568;BME280;47462;59.172;17.196;2023-02-11T06:15:55;100177.63;;;1.00;87.03
61568;BME280;47462;59.172;17.196;2023-02-11T06:18:21;100041.34;;;0.23;86.81
61568;BME280;47462;59.172;17.196;2023-02-11T06:20:46;100168.19;;;0.89;86.63
61568;BME280;47462;59.172;17.196;2023-02-11T06:23:12;100157.00;;;0.69;86.76
61568;BME280;47462;59.172;17.196;2023-02-11T06:25:37;100199.84;;;0.88;86.58
61568;BME280;47462;59.172;17.196;2023-02-11T06:28:03;100208.44;;;0.87;86.55
61568;BME280;47462;59.172;17.196;2023-02-11T06:30:28;100144.03;;;0.38;86.48
61568;BME280;47462;59.172;17.196;2023-02-11T06:32:53;100186.06;;;0.60;86.36
61568;BME280;47462;59.172;17.196;2023-02-11T06:35:19;100217.78;;;0.70;86.31
61568;BME280;47462;59.172;17.196;2023-02-11T06:37:44;100243.50;;;0.84;86.10
61568;BME280;47462;59.172;17.196;2023-02-11T06:40:11;100214.28;;;0.52;86.00
61568;BME280;47462;59.172;17.196;2023-02-11T06:42:37;100216.84;;;0.49;85.92
61568;BME280;47462;59.172;17.196;2023-02-11T06:45:03;100264.00;;;0.67;85.72
61568;BME280;47462;59.172;17.196;2023-02-11T06:47:30;100273.38;;;0.60;85.68
61568;BME280;47462;59.172;17.196;2023-02-11T06:49:55;100244.97;;;0.28;85.38
61568;BME280;47462;59.172;17.196;2023-02-11T06:52:21;100267.19;;;0.24;85.54
61568;BME280;47462;59.172;17.196;2023-02-11T06:54:46;100263.72;;;0.19;85.09
61568;BME280;47462;59.172;17.196;2023-02-11T06:57:12;100285.13;;;0.24;85.32
61568;BME280;47462;59.172;17.196;2023-02-11T06:59:38;100204.38;;;-0.33;85.31
61568;BME280;47462;59.172;17.196;2023-02-11T07:02:03;100314.28;;;0.31;85.06
61568;BME280;47462;59.172;17.196;2023-02-11T07:04:28;100209.41;;;-0.44;84.45
61568;BME280;47462;59.172;17.196;2023-02-11T07:06:54;100348.44;;;0.21;84.77
61568;BME280;47462;59.172;17.196;2023-02-11T07:09:19;100351.81;;;0.16;84.71
61568;BME280;47462;59.172;17.196;2023-02-11T07:11:45;100361.19;;;0.11;84.35
61568;BME280;47462;59.172;17.196;2023-02-11T07:14:10;100380.84;;;0.09;83.86
61568;BME280;47462;59.172;17.196;2023-02-11T07:16:37;100385.91;;;0.00;83.90
61568;BME280;47462;59.172;17.196;2023-02-11T07:19:02;100370.34;;;-0.15;83.79
61568;BME280;47462;59.172;17.196;2023-02-11T07:21:28;100335.00;;;-0.46;83.76
61568;BME280;47462;59.172;17.196;2023-02-11T07:23:53;100412.34;;;-0.04;83.61
61568;BME280;47462;59.172;17.196;2023-02-11T07:26:21;100416.47;;;-0.17;83.38
61568;BME280;47462;59.172;17.196;2023-02-11T07:28:53;100431.91;;;-0.14;83.52
61568;BME280;47462;59.172;17.196;2023-02-11T07:31:24;100426.78;;;-0.14;83.53
61568;BME280;47462;59.172;17.196;2023-02-11T07:33:52;100397.41;;;-0.42;83.15
61568;BME280;47462;59.172;17.196;2023-02-11T07:36:18;100430.03;;;-0.32;82.91
61568;BME280;47462;59.172;17.196;2023-02-11T07:38:44;100419.66;;;-0.41;82.89
61568;BME280;47462;59.172;17.196;2023-02-11T07:41:11;100467.78;;;-0.15;82.75
61568;BME280;47462;59.172;17.196;2023-02-11T07:43:38;100489.16;;;-0.20;83.11
61568;BME280;47462;59.172;17.196;2023-02-11T07:46:06;100487.38;;;-0.24;82.95
61568;BME280;47462;59.172;17.196;2023-02-11T07:48:32;100430.50;;;-0.62;82.76
61568;BME280;47462;59.172;17.196;2023-02-11T07:51:06;100512.97;;;-0.27;82.91
61568;BME280;47462;59.172;17.196;2023-02-11T07:53:31;100499.06;;;-0.47;82.79
61568;BME280;47462;59.172;17.196;2023-02-11T07:55:57;100521.47;;;-0.31;82.97
61568;BME280;47462;59.172;17.196;2023-02-11T07:58:22;100499.09;;;-0.46;82.52
61568;BME280;47462;59.172;17.196;2023-02-11T08:00:48;100487.69;;;-0.65;82.54
61568;BME280;47462;59.172;17.196;2023-02-11T08:03:13;100420.25;;;-1.27;82.23
61568;BME280;47462;59.172;17.196;2023-02-11T08:05:38;100571.81;;;-0.39;82.67
61568;BME280;47462;59.172;17.196;2023-02-11T08:08:04;100569.94;;;-0.49;82.63
61568;BME280;47462;59.172;17.196;2023-02-11T08:10:29;100520.75;;;-0.85;82.39
61568;BME280;47462;59.172;17.196;2023-02-11T08:12:55;100594.91;;;-0.36;82.59
61568;BME280;47462;59.172;17.196;2023-02-11T08:15:20;100605.25;;;-0.31;82.58
61568;BME280;47462;59.172;17.196;2023-02-11T08:17:46;100624.00;;;-0.34;82.32
61568;BME280;47462;59.172;17.196;2023-02-11T08:20:11;100630.03;;;-0.32;82.37
61568;BME280;47462;59.172;17.196;2023-02-11T08:22:37;100653.19;;;-0.27;82.37
61568;BME280;47462;59.172;17.196;2023-02-11T08:25:02;100639.59;;;-0.20;81.89
61568;BME280;47462;59.172;17.196;2023-02-11T08:27:28;100608.75;;;-0.25;81.64
61568;BME280;47462;59.172;17.196;2023-02-11T08:29:54;100607.97;;;-0.21;81.50
61568;BME280;47462;59.172;17.196;2023-02-11T08:32:19;100513.06;;;-0.83;81.42
61568;BME280;47462;59.172;17.196;2023-02-11T08:34:45;100665.41;;;-0.08;81.51
61568;BME280;47462;59.172;17.196;2023-02-11T08:37:10;100683.34;;;-0.09;81.12
61568;BME280;47462;59.172;17.196;2023-02-11T08:39:36;100679.63;;;-0.30;81.37
61568;BME280;47462;59.172;17.196;2023-02-11T08:42:01;100681.22;;;-0.38;81.37
61568;BME280;47462;59.172;17.196;2023-02-11T08:44:27;100730.19;;;-0.23;81.07
61568;BME280;47462;59.172;17.196;2023-02-11T08:46:53;100651.59;;;-0.74;81.18
61568;BME280;47462;59.172;17.196;2023-02-11T08:49:20;100740.56;;;-0.15;81.26
61568;BME280;47462;59.172;17.196;2023-02-11T08:51:45;100691.25;;;-0.53;81.04
61568;BME280;47462;59.172;17.196;2023-02-11T08:54:11;100713.66;;;-0.40;80.84
61568;BME280;47462;59.172;17.196;2023-02-11T08:56:37;100761.84;;;-0.21;80.78
61568;BME280;47462;59.172;17.196;2023-02-11T08:59:03;100741.28;;;-0.24;80.62
61568;BME280;47462;59.172;17.196;2023-02-11T09:01:29;100729.31;;;-0.22;79.57
61568;BME280;47462;59.172;17.196;2023-02-11T09:03:56;100754.16;;;-0.21;79.62
61568;BME280;47462;59.172;17.196;2023-02-11T09:06:23;100797.09;;;-0.09;79.47
61568;BME280;47462;59.172;17.196;2023-02-11T09:08:51;100798.56;;;-0.22;80.14
61568;BME280;47462;59.172;17.196;2023-02-11T09:11:18;100817.44;;;-0.20;80.14
61568;BME280;47462;59.172;17.196;2023-02-11T09:13:45;100844.97;;;-0.08;80.18
61568;BME280;47462;59.172;17.196;2023-02-11T09:16:17;100859.44;;;-0.13;79.75
61568;BME280;47462;59.172;17.196;2023-02-11T09:18:44;100858.63;;;-0.12;79.61
61568;BME280;47462;59.172;17.196;2023-02-11T09:21:10;100870.44;;;-0.19;79.51
61568;BME280;47462;59.172;17.196;2023-02-11T09:23:36;100842.78;;;-0.37;79.79
61568;BME280;47462;59.172;17.196;2023-02-11T09:26:22;100908.31;;;-0.05;79.62
61568;BME280;47462;59.172;17.196;2023-02-11T09:28:49;100888.22;;;-0.28;79.66
61568;BME280;47462;59.172;17.196;2023-02-11T09:31:18;100938.75;;;-0.24;79.58
61568;BME280;47462;59.172;17.196;2023-02-11T09:33:45;100930.94;;;-0.30;79.29
61568;BME280;47462;59.172;17.196;2023-02-11T09:36:22;100937.97;;;-0.21;78.57
61568;BME280;47462;59.172;17.196;2023-02-11T09:38:47;100955.28;;;-0.09;78.88
61568;BME280;47462;59.172;17.196;2023-02-11T09:43:59;100934.44;;;-0.26;78.30
61568;BME280;47462;59.172;17.196;2023-02-11T09:46:39;100969.19;;;0.02;78.41
61568;BME280;47462;59.172;17.196;2023-02-11T09:49:06;100990.75;;;0.12;77.89
61568;BME280;47462;59.172;17.196;2023-02-11T09:51:39;101012.53;;;0.32;77.88
61568;BME280;47462;59.172;17.196;2023-02-11T09:54:27;101015.06;;;0.31;77.81
61568;BME280;47462;59.172;17.196;2023-02-11T09:56:55;101004.44;;;0.11;77.74
61568;BME280;47462;59.172;17.196;2023-02-11T09:59:21;100987.03;;;-0.04;77.49
61568;BME280;47462;59.172;17.196;2023-02-11T10:01:49;101029.00;;;-0.01;77.91
61568;BME280;47462;59.172;17.196;2023-02-11T10:04:38;101022.34;;;0.08;77.88
61568;BME280;47462;59.172;17.196;2023-02-11T10:07:14;101017.38;;;0.17;77.61
61568;BME280;47462;59.172;17.196;2023-02-11T10:09:53;101020.97;;;0.27;77.57
61568;BME280;47462;59.172;17.196;2023-02-11T10:23:40;100966.78;;;-0.33;77.09
61568;BME280;47462;59.172;17.196;2023-02-11T10:26:17;101061.09;;;0.22;76.80
61568;BME280;47462;59.172;17.196;2023-02-11T10:28:45;101077.69;;;0.39;76.53
61568;BME280;47462;59.172;17.196;2023-02-11T10:31:28;101088.78;;;0.38;76.32
61568;BME280;47462;59.172;17.196;2023-02-11T10:34:01;101007.31;;;-0.16;76.65
61568;BME280;47462;59.172;17.196;2023-02-11T10:36:32;101095.13;;;0.56;76.62
61568;BME280;47462;59.172;17.196;2023-02-11T10:38:59;101066.50;;;0.35;75.90
61568;BME280;47462;59.172;17.196;2023-02-11T10:41:32;101103.47;;;0.45;76.04
61568;BME280;47462;59.172;17.196;2023-02-11T10:43:59;101094.66;;;0.31;76.52
61568;BME280;47462;59.172;17.196;2023-02-11T10:46:26;101130.78;;;0.40;76.12
61568;BME280;47462;59.172;17.196;2023-02-11T10:48:53;101148.75;;;0.40;75.88
61568;BME280;47462;59.172;17.196;2023-02-11T10:51:28;101158.03;;;0.35;75.52
61568;BME280;47462;59.172;17.196;2023-02-11T10:56:31;101160.75;;;0.43;75.35
61568;BME280;47462;59.172;17.196;2023-02-11T11:01:23;101138.72;;;0.11;75.57
61568;BME280;47462;59.172;17.196;2023-02-11T11:04:01;101193.41;;;0.48;75.60
61568;BME280;47462;59.172;17.196;2023-02-11T11:06:30;101183.78;;;0.38;75.03
61568;BME280;47462;59.172;17.196;2023-02-11T11:08:56;101131.66;;;0.01;74.94
61568;BME280;47462;59.172;17.196;2023-02-11T11:11:23;101206.38;;;0.55;74.56
61568;BME280;47462;59.172;17.196;2023-02-11T11:13:57;101207.28;;;0.58;74.54
61568;BME280;47462;59.172;17.196;2023-02-11T11:21:41;101238.97;;;0.57;74.53
61568;BME280;47462;59.172;17.196;2023-02-11T11:24:27;101241.75;;;0.68;74.18
61568;BME280;47462;59.172;17.196;2023-02-11T11:26:56;101226.41;;;0.71;73.77
61568;BME280;47462;59.172;17.196;2023-02-11T11:32:04;101251.53;;;0.86;72.47
61568;BME280;47462;59.172;17.196;2023-02-11T11:34:40;101263.69;;;0.95;72.68
61568;BME280;47462;59.172;17.196;2023-02-11T11:37:13;101248.16;;;0.88;72.82
61568;BME280;47462;59.172;17.196;2023-02-11T11:39:51;101268.13;;;1.02;72.56
61568;BME280;47462;59.172;17.196;2023-02-11T11:42:29;101233.56;;;0.86;72.29
61568;BME280;47462;59.172;17.196;2023-02-11T11:45:01;101235.84;;;0.72;72.15
61568;BME280;47462;59.172;17.196;2023-02-11T11:47:42;101281.72;;;0.96;72.01
61568;BME280;47462;59.172;17.196;2023-02-11T11:50:20;101300.75;;;1.04;71.63
61568;BME280;47462;59.172;17.196;2023-02-11T11:55:37;101320.47;;;1.07;71.54
61568;BME280;47462;59.172;17.196;2023-02-11T11:58:11;101320.47;;;1.07;71.34
61568;BME280;47462;59.172;17.196;2023-02-11T12:03:29;101284.53;;;0.66;72.07
61568;BME280;47462;59.172;17.196;2023-02-11T12:14:47;101319.94;;;0.81;71.98
61568;BME280;47462;59.172;17.196;2023-02-11T12:20:50;101389.16;;;1.13;71.77
61568;BME280;47462;59.172;17.196;2023-02-11T12:23:51;101388.25;;;1.11;71.68
61568;BME280;47462;59.172;17.196;2023-02-11T12:26:23;101375.94;;;0.96;72.08
61568;BME280;47462;59.172;17.196;2023-02-11T12:29:07;101319.03;;;0.39;72.07
61568;BME280;47462;59.172;17.196;2023-02-11T12:40:16;101415.25;;;0.92;71.92
61568;BME280;47462;59.172;17.196;2023-02-11T12:48:48;101471.09;;;0.99;71.56
61568;BME280;47462;59.172;17.196;2023-02-11T12:51:46;101482.22;;;0.98;71.40
61568;BME280;47462;59.172;17.196;2023-02-11T12:54:29;101467.78;;;1.03;72.11
61568;BME280;47462;59.172;17.196;2023-02-11T12:57:20;101459.69;;;0.86;71.29
61568;BME280;47462;59.172;17.196;2023-02-11T13:05:04;101448.72;;;0.58;70.68
61568;BME280;47462;59.172;17.196;2023-02-11T13:07:38;101488.41;;;0.69;71.29
61568;BME280;47462;59.172;17.196;2023-02-11T13:10:25;101505.50;;;0.67;71.83
61568;BME280;47462;59.172;17.196;2023-02-11T13:12:53;101445.28;;;0.23;71.99
61568;BME280;47462;59.172;17.196;2023-02-11T13:15:39;101522.31;;;0.56;71.74
61568;BME280;47462;59.172;17.196;2023-02-11T13:21:03;101396.84;;;-0.32;71.20
61568;BME280;47462;59.172;17.196;2023-02-11T13:26:22;101552.16;;;0.51;71.23
61568;BME280;47462;59.172;17.196;2023-02-11T13:29:14;101506.81;;;0.20;71.55
61568;BME280;47462;59.172;17.196;2023-02-11T13:31:52;101531.75;;;0.24;71.67
61568;BME280;47462;59.172;17.196;2023-02-11T13:37:24;101574.13;;;0.41;71.98
61568;BME280;47462;59.172;17.196;2023-02-11T13:42:24;101490.28;;;-0.22;72.90
61568;BME280;47462;59.172;17.196;2023-02-11T13:44:49;101564.38;;;0.28;73.07
61568;BME280;47462;59.172;17.196;2023-02-11T13:49:50;101599.16;;;0.48;72.72
61568;BME280;47462;59.172;17.196;2023-02-11T13:54:46;101613.94;;;0.56;72.44
61568;BME280;47462;59.172;17.196;2023-02-11T13:59:46;101562.50;;;0.22;72.38
61568;BME280;47462;59.172;17.196;2023-02-11T14:10:56;101649.97;;;0.28;72.95
61568;BME280;47462;59.172;17.196;2023-02-11T14:13:31;101654.34;;;0.31;72.99
61568;BME280;47462;59.172;17.196;2023-02-11T14:16:10;101665.28;;;0.25;73.26
61568;BME280;47462;59.172;17.196;2023-02-11T14:26:58;101688.34;;;0.24;72.78
61568;BME280;47462;59.172;17.196;2023-02-11T14:34:53;101707.50;;;0.35;73.60
61568;BME280;47462;59.172;17.196;2023-02-11T14:40:24;101730.09;;;0.18;73.61
61568;BME280;47462;59.172;17.196;2023-02-11T14:42:53;101735.94;;;0.12;73.96
61568;BME280;47462;59.172;17.196;2023-02-11T14:45:23;101681.59;;;-0.30;74.19
61568;BME280;47462;59.172;17.196;2023-02-11T14:50:23;101671.13;;;-0.37;73.74
61568;BME280;47462;59.172;17.196;2023-02-11T14:52:51;101748.63;;;0.08;73.81
61568;BME280;47462;59.172;17.196;2023-02-11T14:55:29;101763.72;;;-0.02;73.84
61568;BME280;47462;59.172;17.196;2023-02-11T15:00:45;101642.75;;;-0.94;74.58
61568;BME280;47462;59.172;17.196;2023-02-11T15:03:33;101788.84;;;-0.19;74.87
61568;BME280;47462;59.172;17.196;2023-02-11T15:06:22;101801.47;;;-0.25;74.85
61568;BME280;47462;59.172;17.196;2023-02-11T15:08:51;101816.84;;;-0.25;74.97
61568;BME280;47462;59.172;17.196;2023-02-11T15:11:20;101805.56;;;-0.30;74.97
61568;BME280;47462;59.172;17.196;2023-02-11T15:13:47;101794.84;;;-0.44;74.91
61568;BME280;47462;59.172;17.196;2023-02-11T15:16:19;101796.66;;;-0.41;74.89
61568;BME280;47462;59.172;17.196;2023-02-11T15:18:58;101806.81;;;-0.44;74.80
61568;BME280;47462;59.172;17.196;2023-02-11T15:21:28;101810.19;;;-0.45;74.44
61568;BME280;47462;59.172;17.196;2023-02-11T15:23:58;101830.91;;;-0.39;74.61
61568;BME280;47462;59.172;17.196;2023-02-11T15:26:23;101777.31;;;-0.81;74.71
61568;BME280;47462;59.172;17.196;2023-02-11T15:28:49;101831.97;;;-0.58;74.86
61568;BME280;47462;59.172;17.196;2023-02-11T15:31:17;101861.25;;;-0.51;74.72
61568;BME280;47462;59.172;17.196;2023-02-11T15:33:43;101738.03;;;-1.30;74.66
61568;BME280;47462;59.172;17.196;2023-02-11T15:36:11;101871.19;;;-0.61;75.02